createdAt,value
2023-01-28T00:01:08.445Z,4.34
2023-01-28T00:03:35.557Z,4.20
2023-01-28T00:06:07.549Z,3.81
2023-01-28T00:08:34.089Z,3.78
2023-01-28T00:11:02.282Z,4.21
2023-01-28T00:13:29.464Z,3.75
2023-01-28T00:16:00.761Z,4.26
2023-01-28T00:18:28.714Z,4.14
2023-01-28T00:20:58.964Z,4.32
2023-01-28T00:23:27.367Z,4.15
2023-01-28T00:25:54.827Z,3.76
2023-01-28T00:28:22.266Z,3.76
2023-01-28T00:30:51.051Z,3.62
2023-01-28T00:33:17.634Z,3.63
2023-01-28T00:35:46.560Z,3.85
2023-01-28T00:38:13.301Z,4.26
2023-01-28T00:40:39.833Z,4.04
2023-01-28T00:43:06.407Z,4.14
2023-01-28T00:45:33.235Z,3.74
2023-01-28T00:48:00.011Z,4.23
2023-01-28T00:50:26.531Z,3.72
2023-01-28T00:52:53.078Z,4.17
2023-01-28T00:55:19.983Z,4.13
2023-01-28T00:57:47.170Z,4.17
2023-01-28T01:00:13.905Z,4.14
2023-01-28T01:02:42.226Z,3.59
2023-01-28T01:05:09.128Z,3.84
2023-01-28T01:07:41.917Z,4.12
2023-01-28T01:10:18.003Z,3.91
2023-01-28T01:12:49.154Z,3.99
2023-01-28T01:15:17.567Z,3.97
2023-01-28T01:17:47.530Z,3.48
2023-01-28T01:20:17.243Z,3.49
2023-01-28T01:22:43.860Z,3.97
2023-01-28T01:25:13.157Z,3.53
2023-01-28T01:27:41.013Z,3.84
2023-01-28T01:30:09.178Z,4.01
2023-01-28T01:32:36.599Z,4.08
2023-01-28T01:35:06.709Z,3.81
2023-01-28T01:37:34.207Z,3.59
2023-01-28T01:40:05.031Z,4.08
2023-01-28T01:42:33.570Z,3.84
2023-01-28T01:45:06.182Z,4.05
2023-01-28T01:47:44.964Z,4.09
2023-01-28T01:50:31.871Z,3.78
2023-01-28T01:53:03.380Z,3.96
2023-01-28T01:55:33.547Z,3.99
2023-01-28T01:58:05.375Z,3.77
2023-01-28T02:00:32.496Z,3.43
2023-01-28T02:02:59.721Z,3.85
2023-01-28T02:05:26.300Z,3.29
2023-01-28T02:08:16.984Z,3.78
2023-01-28T02:10:45.388Z,3.08
2023-01-28T02:13:14.820Z,3.71
2023-01-28T02:15:42.283Z,3.36
2023-01-28T02:18:08.831Z,3.32
2023-01-28T02:20:54.262Z,3.98
2023-01-28T02:23:38.823Z,3.98
2023-01-28T02:26:24.235Z,3.79
2023-01-28T02:29:10.050Z,3.77
2023-01-28T02:31:44.429Z,3.36
2023-01-28T02:34:35.819Z,3.88
2023-01-28T02:37:27.439Z,3.78
2023-01-28T02:40:10.513Z,3.81
2023-01-28T02:42:39.398Z,3.80
2023-01-28T02:45:21.538Z,3.97
2023-01-28T02:48:00.209Z,3.84
2023-01-28T02:50:40.516Z,3.26
2023-01-28T02:53:43.877Z,3.87
2023-01-28T02:56:32.661Z,3.84
2023-01-28T02:59:31.881Z,3.73
2023-01-28T03:02:09.133Z,3.80
2023-01-28T03:05:01.670Z,3.66
2023-01-28T03:07:31.356Z,3.52
2023-01-28T03:10:04.186Z,3.77
2023-01-28T03:12:50.682Z,3.23
2023-01-28T03:15:40.046Z,3.45
2023-01-28T03:18:35.851Z,3.70
2023-01-28T03:21:34.959Z,3.41
2023-01-28T03:24:44.506Z,3.69
2023-01-28T03:28:23.355Z,3.67
2023-01-28T03:31:21.112Z,3.66
2023-01-28T03:34:11.379Z,3.55
2023-01-28T03:36:47.410Z,3.53
2023-01-28T03:39:31.382Z,3.32
2023-01-28T03:42:05.597Z,3.52
2023-01-28T03:44:54.070Z,2.96
2023-01-28T03:47:26.424Z,3.23
2023-01-28T03:49:55.218Z,2.86
2023-01-28T03:52:30.670Z,3.48
2023-01-28T03:55:13.781Z,2.88
2023-01-28T03:57:41.452Z,3.37
2023-01-28T04:00:10.528Z,3.13
2023-01-28T04:02:42.833Z,3.32
2023-01-28T04:05:16.447Z,3.43
2023-01-28T04:07:48.303Z,3.30
2023-01-28T04:10:20.364Z,3.53
2023-01-28T04:12:55.005Z,3.55
2023-01-28T04:15:24.025Z,3.46
2023-01-28T04:17:50.639Z,3.34
2023-01-28T04:20:27.142Z,3.49
2023-01-28T04:22:54.885Z,3.35
2023-01-28T04:25:22.705Z,3.53
2023-01-28T04:27:49.467Z,3.04
2023-01-28T04:30:21.659Z,3.45
2023-01-28T04:33:05.762Z,2.91
2023-01-28T04:35:40.360Z,3.48
2023-01-28T04:38:11.171Z,3.44
2023-01-28T04:41:06.633Z,3.28
2023-01-28T04:43:34.859Z,2.83
2023-01-28T04:46:36.784Z,2.89
2023-01-28T04:49:16.133Z,3.43
2023-01-28T04:51:51.707Z,2.88
2023-01-28T04:54:29.051Z,3.14
2023-01-28T04:56:59.182Z,2.82
2023-01-28T04:59:25.923Z,3.03
2023-01-28T05:01:52.586Z,2.68
2023-01-28T05:04:19.774Z,2.78
2023-01-28T05:06:46.645Z,3.14
2023-01-28T05:09:18.985Z,3.24
2023-01-28T05:11:45.731Z,2.59
2023-01-28T05:14:13.345Z,2.65
2023-01-28T05:16:51.237Z,3.05
2023-01-28T05:19:19.408Z,2.90
2023-01-28T05:21:47.109Z,3.09
2023-01-28T05:24:23.161Z,2.60
2023-01-28T05:26:49.737Z,2.98
2023-01-28T05:29:16.786Z,3.17
2023-01-28T05:31:43.473Z,2.96
2023-01-28T05:34:10.152Z,3.09
2023-01-28T05:36:37.084Z,2.98
2023-01-28T05:39:14.516Z,3.04
2023-01-28T05:41:41.647Z,2.49
2023-01-28T05:44:08.318Z,2.85
2023-01-28T05:46:55.135Z,2.63
2023-01-28T05:50:00.211Z,2.97
2023-01-28T05:52:52.688Z,2.52
2023-01-28T05:55:24.582Z,2.80
2023-01-28T05:57:51.880Z,3.01
2023-01-28T06:00:21.535Z,2.41
2023-01-28T06:02:48.034Z,2.99
2023-01-28T06:05:15.735Z,2.91
2023-01-28T06:07:48.111Z,2.76
2023-01-28T06:10:17.893Z,3.02
2023-01-28T06:12:44.649Z,2.39
2023-01-28T06:15:36.272Z,2.74
2023-01-28T06:18:16.239Z,2.78
2023-01-28T06:20:45.894Z,2.66
2023-01-28T06:23:12.511Z,2.74
2023-01-28T06:25:39.113Z,2.26
2023-01-28T06:28:09.923Z,2.85
2023-01-28T06:30:36.465Z,2.34
2023-01-28T06:33:03.244Z,2.31
2023-01-28T06:35:29.876Z,2.87
2023-01-28T06:37:56.772Z,2.60
2023-01-28T06:40:24.952Z,2.67
2023-01-28T06:42:51.450Z,2.27
2023-01-28T06:45:18.007Z,2.20
2023-01-28T06:47:44.604Z,2.80
2023-01-28T06:50:11.613Z,2.33
2023-01-28T06:52:38.210Z,2.83
2023-01-28T06:55:05.187Z,2.10
2023-01-28T06:57:31.699Z,2.49
2023-01-28T06:59:58.229Z,2.59
2023-01-28T07:02:27.497Z,2.53
2023-01-28T07:04:54.249Z,2.71
2023-01-28T07:07:20.935Z,2.25
2023-01-28T07:09:47.444Z,2.22
2023-01-28T07:12:14.071Z,2.69
2023-01-28T07:14:40.639Z,2.13
2023-01-28T07:17:07.159Z,2.08
2023-01-28T07:19:33.683Z,2.36
2023-01-28T07:22:03.010Z,2.26
2023-01-28T07:24:30.460Z,2.26
2023-01-28T07:26:57.098Z,2.82
2023-01-28T07:29:23.647Z,2.69
2023-01-28T07:31:50.725Z,2.39
2023-01-28T07:34:17.329Z,2.52
2023-01-28T07:36:43.869Z,2.30
2023-01-28T07:39:12.881Z,2.71
2023-01-28T07:41:39.542Z,2.10
2023-01-28T07:44:06.833Z,2.75
2023-01-28T07:46:33.332Z,2.20
2023-01-28T07:49:00.250Z,2.45
2023-01-28T07:51:26.861Z,2.69
2023-01-28T07:53:53.518Z,2.24
2023-01-28T07:56:20.121Z,2.69
2023-01-28T07:58:50.206Z,2.74
2023-01-28T08:01:18.207Z,2.76
2023-01-28T08:03:44.727Z,2.82
2023-01-28T08:06:11.695Z,2.23
2023-01-28T08:08:38.202Z,2.81
2023-01-28T08:11:09.282Z,2.94
2023-01-28T08:13:35.982Z,2.44
2023-01-28T08:16:03.115Z,2.70
2023-01-28T08:18:29.801Z,2.52
2023-01-28T08:20:57.921Z,2.55
2023-01-28T08:23:26.878Z,3.09
2023-01-28T08:25:54.067Z,3.17
2023-01-28T08:28:21.727Z,2.78
2023-01-28T08:30:48.402Z,2.35
2023-01-28T08:33:16.236Z,2.73
2023-01-28T08:35:43.048Z,3.21
2023-01-28T08:38:11.949Z,2.97
2023-01-28T08:40:38.859Z,3.45
2023-01-28T08:43:06.529Z,3.22
2023-01-28T08:45:33.336Z,2.92
2023-01-28T08:48:02.292Z,2.91
2023-01-28T08:50:34.971Z,3.22
2023-01-28T08:53:07.040Z,3.49
2023-01-28T08:55:34.544Z,3.21
2023-01-28T08:58:06.945Z,3.36
2023-01-28T09:00:34.997Z,3.03
2023-01-28T09:03:04.620Z,3.52
2023-01-28T09:05:33.983Z,3.47
2023-01-28T09:08:06.531Z,3.11
2023-01-28T09:10:33.009Z,3.66
2023-01-28T09:12:59.538Z,3.66
2023-01-28T09:15:26.377Z,3.55
2023-01-28T09:17:59.808Z,3.26
2023-01-28T09:20:27.575Z,3.11
2023-01-28T09:22:54.711Z,3.36
2023-01-28T09:25:23.936Z,3.34
2023-01-28T09:27:50.653Z,3.54
2023-01-28T09:30:17.839Z,3.50
2023-01-28T09:32:44.717Z,3.06
2023-01-28T09:35:11.828Z,3.68
2023-01-28T09:37:38.365Z,3.12
2023-01-28T09:40:05.676Z,2.90
2023-01-28T09:42:44.893Z,3.07
2023-01-28T09:45:17.482Z,3.29
2023-01-28T09:47:43.869Z,3.76
2023-01-28T09:50:34.103Z,3.67
2023-01-28T09:53:07.526Z,3.17
2023-01-28T09:55:44.515Z,3.60
2023-01-28T09:58:13.531Z,3.05
2023-01-28T10:00:59.097Z,3.13
2023-01-28T10:03:41.169Z,3.19
2023-01-28T10:06:23.916Z,3.24
2023-01-28T10:09:05.422Z,3.78
2023-01-28T10:12:17.199Z,3.76
2023-01-28T10:14:55.963Z,3.80
2023-01-28T10:17:43.571Z,3.81
2023-01-28T10:20:14.051Z,3.78
2023-01-28T10:22:54.891Z,3.75
2023-01-28T10:25:25.693Z,3.75
2023-01-28T10:27:52.539Z,3.54
2023-01-28T10:30:22.274Z,3.68
2023-01-28T10:32:53.667Z,3.88
2023-01-28T10:35:21.769Z,3.71
2023-01-28T10:37:48.899Z,3.96
2023-01-28T10:40:17.988Z,3.38
2023-01-28T10:42:45.575Z,3.98
2023-01-28T10:45:23.147Z,4.06
2023-01-28T10:47:55.957Z,4.10
2023-01-28T10:50:27.711Z,4.07
2023-01-28T10:52:59.033Z,4.13
2023-01-28T10:55:29.809Z,3.91
2023-01-28T10:57:56.896Z,4.10
2023-01-28T11:00:26.906Z,4.36
2023-01-28T11:02:54.215Z,4.33
2023-01-28T11:05:25.740Z,3.93
2023-01-28T11:08:13.068Z,4.25
2023-01-28T11:10:40.380Z,4.56
2023-01-28T11:13:16.349Z,4.82
2023-01-28T11:15:50.739Z,5.12
2023-01-28T11:18:28.353Z,5.46
2023-01-28T11:20:59.074Z,5.22
2023-01-28T11:23:35.868Z,5.40
2023-01-28T11:26:15.818Z,5.51
2023-01-28T11:28:43.488Z,5.80
2023-01-28T11:31:14.848Z,5.97
2023-01-28T11:33:50.695Z,6.02
2023-01-28T11:36:23.348Z,5.81
2023-01-28T11:39:00.291Z,6.09
2023-01-28T11:41:37.398Z,6.10
2023-01-28T11:44:19.253Z,5.69
2023-01-28T11:46:55.980Z,5.93
2023-01-28T11:49:32.617Z,6.16
2023-01-28T11:52:24.555Z,6.28
2023-01-28T11:55:21.608Z,5.92
2023-01-28T11:58:14.397Z,8.14
2023-01-28T12:01:22.121Z,10.12
2023-01-28T12:04:03.953Z,10.96
2023-01-28T12:06:42.610Z,12.19
2023-01-28T12:09:50.085Z,13.41
2023-01-28T12:12:47.668Z,14.80
2023-01-28T12:15:34.154Z,14.19
2023-01-28T12:18:06.441Z,15.39
2023-01-28T12:20:57.958Z,15.95
2023-01-28T12:23:58.333Z,14.37
2023-01-28T12:26:47.369Z,14.70
2023-01-28T12:29:25.970Z,14.53
2023-01-28T12:31:52.577Z,13.12
2023-01-28T12:34:46.870Z,11.18
2023-01-28T12:37:25.449Z,10.39
2023-01-28T12:40:06.871Z,10.16
2023-01-28T12:42:45.594Z,9.83
2023-01-28T12:45:19.221Z,9.26
2023-01-28T12:48:02.287Z,8.74
2023-01-28T12:50:38.113Z,8.10
2023-01-28T12:53:28.359Z,8.32
2023-01-28T12:56:16.794Z,10.02
2023-01-28T12:59:23.720Z,11.50
2023-01-28T13:02:12.112Z,11.15
2023-01-28T13:05:05.938Z,12.04
2023-01-28T13:07:53.486Z,12.69
2023-01-28T13:10:19.962Z,14.50
2023-01-28T13:12:48.223Z,15.28
2023-01-28T13:15:18.351Z,15.26
2023-01-28T13:17:56.475Z,14.73
2023-01-28T13:20:50.680Z,14.28
2023-01-28T13:23:22.824Z,15.09
2023-01-28T13:25:52.887Z,14.51
2023-01-28T13:28:28.892Z,14.69
2023-01-28T13:31:08.710Z,14.76
2023-01-28T13:33:41.331Z,16.56
2023-01-28T13:36:21.902Z,17.25
2023-01-28T13:38:59.659Z,17.00
2023-01-28T13:41:48.193Z,15.20
2023-01-28T13:44:32.469Z,13.81
2023-01-28T13:47:08.379Z,13.50
2023-01-28T13:49:41.248Z,12.26
2023-01-28T13:52:16.280Z,11.58
2023-01-28T13:54:51.687Z,11.29
2023-01-28T13:57:49.341Z,11.24
2023-01-28T14:00:25.180Z,11.79
2023-01-28T14:03:13.766Z,11.34
2023-01-28T14:05:58.474Z,11.12
2023-01-28T14:08:57.287Z,10.97
2023-01-28T14:11:42.587Z,10.23
2023-01-28T14:14:31.121Z,9.97
2023-01-28T14:17:30.421Z,9.84
2023-01-28T14:19:58.377Z,9.81
2023-01-28T14:22:26.087Z,8.95
2023-01-28T14:24:53.085Z,9.99
2023-01-28T14:27:47.503Z,9.30
2023-01-28T14:30:41.630Z,7.89
2023-01-28T14:33:11.896Z,6.56
2023-01-28T14:35:44.428Z,6.14
2023-01-28T14:38:16.838Z,5.83
2023-01-28T14:40:43.921Z,5.27
2023-01-28T14:43:18.074Z,6.45
2023-01-28T14:45:44.527Z,7.95
2023-01-28T14:48:32.012Z,8.74
2023-01-28T14:51:30.345Z,7.96
2023-01-28T14:54:28.908Z,8.04
2023-01-28T14:57:03.534Z,9.32
2023-01-28T14:59:34.432Z,8.97
2023-01-28T15:02:01.842Z,9.63
2023-01-28T15:04:35.598Z,9.94
2023-01-28T15:07:17.223Z,11.17
2023-01-28T15:09:44.368Z,11.28
2023-01-28T15:12:11.556Z,10.29
2023-01-28T15:14:39.770Z,9.74
2023-01-28T15:17:06.655Z,8.52
2023-01-28T15:19:35.852Z,7.48
2023-01-28T15:22:05.686Z,6.37
2023-01-28T15:24:34.880Z,6.19
2023-01-28T15:27:01.935Z,5.55
2023-01-28T15:29:32.362Z,4.50
2023-01-28T15:31:59.499Z,4.25
2023-01-28T15:34:32.527Z,3.81
2023-01-28T15:37:00.447Z,3.56
2023-01-28T15:39:28.882Z,4.05
2023-01-28T15:41:57.513Z,3.58
2023-01-28T15:44:32.394Z,3.65
2023-01-28T15:47:04.593Z,3.15
2023-01-28T15:49:35.517Z,3.17
2023-01-28T15:52:02.462Z,3.13
2023-01-28T15:54:30.630Z,2.99
2023-01-28T15:56:57.464Z,2.29
2023-01-28T15:59:27.869Z,2.43
2023-01-28T16:02:17.667Z,2.56
2023-01-28T16:04:44.264Z,2.50
2023-01-28T16:07:10.931Z,2.59
2023-01-28T16:09:37.503Z,1.80
2023-01-28T16:12:07.458Z,2.00
2023-01-28T16:14:50.431Z,2.06
2023-01-28T16:17:17.785Z,1.90
2023-01-28T16:19:49.362Z,1.48
2023-01-28T16:22:22.152Z,0.98
2023-01-28T16:24:53.899Z,0.80
2023-01-28T16:27:24.775Z,1.24
2023-01-28T16:29:51.390Z,1.07
2023-01-28T16:32:34.364Z,0.99
2023-01-28T16:35:01.812Z,0.90
2023-01-28T16:37:28.700Z,0.52
2023-01-28T16:39:55.284Z,0.18
2023-01-28T16:42:21.922Z,0.16
2023-01-28T16:44:48.474Z,-0.12
2023-01-28T16:47:14.975Z,-0.31
2023-01-28T16:49:41.593Z,-0.57
2023-01-28T16:52:11.203Z,0.01
2023-01-28T16:54:39.157Z,-0.09
2023-01-28T16:57:05.722Z,-0.10
2023-01-28T16:59:32.246Z,-0.14
2023-01-28T17:01:58.827Z,-0.42
2023-01-28T17:04:25.388Z,-0.56
2023-01-28T17:06:53.219Z,-0.36
2023-01-28T17:09:20.482Z,-0.68
2023-01-28T17:11:47.700Z,-0.58
2023-01-28T17:14:14.236Z,-0.70
2023-01-28T17:16:40.986Z,-0.77
2023-01-28T17:19:07.694Z,-0.63
2023-01-28T17:21:34.337Z,-0.88
2023-01-28T17:24:01.527Z,-0.86
2023-01-28T17:26:31.633Z,-0.96
2023-01-28T17:28:58.337Z,-1.20
2023-01-28T17:31:26.410Z,-1.42
2023-01-28T17:33:55.337Z,-1.68
2023-01-28T17:36:22.483Z,-1.00
2023-01-28T17:38:49.089Z,-1.08
2023-01-28T17:41:17.254Z,-1.54
2023-01-28T17:43:44.423Z,-0.76
2023-01-28T17:46:15.837Z,-0.77
2023-01-28T17:48:45.647Z,-1.12
2023-01-28T17:51:13.693Z,-1.27
2023-01-28T17:53:44.667Z,-0.64
2023-01-28T17:56:16.909Z,-0.71
2023-01-28T17:58:43.484Z,-1.11
2023-01-28T18:01:10.839Z,-1.06
2023-01-28T18:03:37.431Z,-0.97
2023-01-28T18:06:04.458Z,-0.64
2023-01-28T18:08:30.978Z,-0.56
2023-01-28T18:10:57.586Z,-1.21
2023-01-28T18:13:24.216Z,-1.55
2023-01-28T18:15:50.782Z,-1.32
2023-01-28T18:18:17.352Z,-0.71
2023-01-28T18:20:43.846Z,-0.95
2023-01-28T18:23:10.427Z,-0.83
2023-01-28T18:25:37.225Z,-1.44
2023-01-28T18:28:05.640Z,-1.47
2023-01-28T18:30:32.175Z,-0.93
2023-01-28T18:32:58.760Z,-1.04
2023-01-28T18:35:25.321Z,-1.31
2023-01-28T18:37:51.883Z,-1.70
2023-01-28T18:40:18.669Z,-1.61
2023-01-28T18:42:45.223Z,-1.09
2023-01-28T18:45:11.824Z,-1.76
2023-01-28T18:47:38.397Z,-1.64
2023-01-28T18:50:05.625Z,-0.89
2023-01-28T18:52:32.239Z,-0.78
2023-01-28T18:54:58.747Z,-1.28
2023-01-28T18:57:25.271Z,-1.21
2023-01-28T18:59:51.832Z,-1.22
2023-01-28T19:02:18.520Z,-0.48
2023-01-28T19:04:45.070Z,-0.88
2023-01-28T19:07:12.034Z,-0.20
2023-01-28T19:09:38.648Z,-0.28
2023-01-28T19:12:05.830Z,-0.46
2023-01-28T19:14:32.623Z,-0.29
2023-01-28T19:16:59.584Z,-0.29
2023-01-28T19:19:26.373Z,0.45
2023-01-28T19:21:53.467Z,-0.01
2023-01-28T19:24:20.390Z,0.20
2023-01-28T19:26:46.963Z,-0.28
2023-01-28T19:29:16.155Z,-0.12
2023-01-28T19:31:44.323Z,-0.17
2023-01-28T19:34:11.354Z,0.29
2023-01-28T19:36:38.055Z,0.20
2023-01-28T19:39:07.860Z,0.50
2023-01-28T19:41:35.950Z,-0.11
2023-01-28T19:44:02.655Z,0.15
2023-01-28T19:46:29.293Z,0.43
2023-01-28T19:48:56.151Z,0.17
2023-01-28T19:51:22.959Z,0.60
2023-01-28T19:53:53.930Z,0.84
2023-01-28T19:56:22.911Z,0.89
2023-01-28T19:58:49.972Z,0.55
2023-01-28T20:01:20.345Z,0.94
2023-01-28T20:03:52.715Z,1.02
2023-01-28T20:06:19.636Z,0.92
2023-01-28T20:08:51.711Z,1.02
2023-01-28T20:11:18.652Z,0.99
2023-01-28T20:13:46.900Z,0.55
2023-01-28T20:16:17.801Z,1.23
2023-01-28T20:18:49.896Z,1.24
2023-01-28T20:21:18.760Z,1.18
2023-01-28T20:23:46.545Z,1.17
2023-01-28T20:26:13.100Z,1.30
2023-01-28T20:28:39.880Z,0.81
2023-01-28T20:31:10.187Z,0.95
2023-01-28T20:33:38.754Z,0.89
2023-01-28T20:36:11.312Z,0.43
2023-01-28T20:38:42.922Z,0.33
2023-01-28T20:41:12.458Z,0.41
2023-01-28T20:43:41.087Z,0.63
2023-01-28T20:46:13.237Z,0.25
2023-01-28T20:48:39.933Z,0.35
2023-01-28T20:51:14.120Z,0.63
2023-01-28T20:53:41.849Z,0.24
2023-01-28T20:56:10.101Z,0.81
2023-01-28T20:58:36.894Z,0.80
2023-01-28T21:01:04.241Z,0.19
2023-01-28T21:03:31.008Z,0.45
2023-01-28T21:05:57.534Z,-0.02
2023-01-28T21:08:24.292Z,0.64
2023-01-28T21:10:50.891Z,-0.01
2023-01-28T21:13:17.610Z,0.59
2023-01-28T21:15:55.730Z,0.56
2023-01-28T21:18:23.217Z,0.33
2023-01-28T21:20:50.770Z,-0.17
2023-01-28T21:23:18.496Z,0.18
2023-01-28T21:25:52.501Z,-0.18
2023-01-28T21:28:19.961Z,0.30
2023-01-28T21:30:47.482Z,0.44
2023-01-28T21:33:14.132Z,0.24
2023-01-28T21:35:43.271Z,-0.29
2023-01-28T21:38:10.763Z,-0.16
2023-01-28T21:40:37.895Z,-0.42
2023-01-28T21:43:04.559Z,0.23
2023-01-28T21:45:31.109Z,0.26
2023-01-28T21:47:57.969Z,-0.10
2023-01-28T21:50:24.809Z,0.15
2023-01-28T21:52:51.389Z,0.39
2023-01-28T21:55:18.623Z,-0.27
2023-01-28T21:57:45.152Z,0.35
2023-01-28T22:00:13.070Z,0.53
2023-01-28T22:02:40.372Z,-0.05
2023-01-28T22:05:07.306Z,0.52
2023-01-28T22:07:33.969Z,0.41
2023-01-28T22:10:00.622Z,0.24
2023-01-28T22:12:28.095Z,-0.06
2023-01-28T22:14:54.844Z,0.62
2023-01-28T22:17:21.461Z,0.45
2023-01-28T22:19:48.188Z,0.45
2023-01-28T22:22:16.377Z,0.37
2023-01-28T22:24:42.959Z,-0.09
2023-01-28T22:27:10.060Z,-0.10
2023-01-28T22:29:36.607Z,0.53
2023-01-28T22:32:04.720Z,-0.25
2023-01-28T22:34:31.710Z,0.23
2023-01-28T22:36:58.296Z,0.58
2023-01-28T22:39:25.017Z,0.54
2023-01-28T22:41:51.590Z,0.50
2023-01-28T22:44:19.886Z,0.45
2023-01-28T22:46:47.314Z,-0.08
2023-01-28T22:49:15.000Z,0.69
2023-01-28T22:51:41.961Z,0.37
2023-01-28T22:54:10.977Z,0.22
2023-01-28T22:56:38.238Z,0.90
2023-01-28T22:59:04.883Z,0.70
2023-01-28T23:01:31.554Z,0.75
2023-01-28T23:03:58.532Z,0.24
2023-01-28T23:06:27.482Z,0.30
2023-01-28T23:08:56.110Z,0.94
2023-01-28T23:11:27.197Z,0.26
2023-01-28T23:14:14.808Z,0.75
2023-01-28T23:17:00.366Z,0.46
2023-01-28T23:19:45.528Z,0.52
2023-01-28T23:22:34.363Z,0.59
2023-01-28T23:25:00.971Z,0.29
2023-01-28T23:27:27.628Z,0.18
2023-01-28T23:29:54.221Z,0.21
2023-01-28T23:32:21.654Z,-0.03
2023-01-28T23:34:48.316Z,0.27
2023-01-28T23:37:15.925Z,-0.31
2023-01-28T23:39:43.118Z,-0.54
2023-01-28T23:42:20.865Z,-0.53
2023-01-28T23:44:47.747Z,-0.36
2023-01-28T23:47:14.645Z,-0.81
2023-01-28T23:49:41.437Z,-0.44
2023-01-28T23:52:08.859Z,-1.05
2023-01-28T23:54:35.934Z,-1.15
2023-01-28T23:57:03.267Z,-0.68
2023-01-28T23:59:30.063Z,-0.90
